sensor_id;sensor_type;location;lat;lon;timestamp;temperature;humidity
68764;DHT22;55754;52.038;5.566;2023-03-03T00:00:02;3.30;96.70
68764;DHT22;55754;52.038;5.566;2023-03-03T00:02:27;3.20;96.60
68764;DHT22;55754;52.038;5.566;2023-03-03T00:04:53;3.30;96.80
68764;DHT22;55754;52.038;5.566;2023-03-03T00:07:19;3.20;97.00
68764;DHT22;55754;52.038;5.566;2023-03-03T00:09:48;3.20;97.10
68764;DHT22;55754;52.038;5.566;2023-03-03T00:14:52;3.20;97.20
68764;DHT22;55754;52.038;5.566;2023-03-03T00:17:29;3.10;97.00
68764;DHT22;55754;52.038;5.566;2023-03-03T00:19:55;3.10;97.00
68764;DHT22;55754;52.038;5.566;2023-03-03T00:22:30;3.10;97.00
68764;DHT22;55754;52.038;5.566;2023-03-03T00:25:00;3.00;97.50
68764;DHT22;55754;52.038;5.566;2023-03-03T00:27:44;3.00;97.30
68764;DHT22;55754;52.038;5.566;2023-03-03T00:30:22;3.00;97.10
68764;DHT22;55754;52.038;5.566;2023-03-03T00:32:49;3.00;97.50
68764;DHT22;55754;52.038;5.566;2023-03-03T00:35:37;3.00;97.60
68764;DHT22;55754;52.038;5.566;2023-03-03T00:38:13;2.90;98.10
68764;DHT22;55754;52.038;5.566;2023-03-03T00:40:39;2.90;97.60
68764;DHT22;55754;52.038;5.566;2023-03-03T00:43:21;2.90;97.20
68764;DHT22;55754;52.038;5.566;2023-03-03T00:45:50;3.00;97.40
68764;DHT22;55754;52.038;5.566;2023-03-03T00:50:48;2.90;97.40
68764;DHT22;55754;52.038;5.566;2023-03-03T00:53:16;2.90;97.80
68764;DHT22;55754;52.038;5.566;2023-03-03T00:55:43;2.90;97.50
68764;DHT22;55754;52.038;5.566;2023-03-03T00:58:09;2.80;97.30
68764;DHT22;55754;52.038;5.566;2023-03-03T01:00:35;2.80;97.60
68764;DHT22;55754;52.038;5.566;2023-03-03T01:03:03;2.80;98.10
68764;DHT22;55754;52.038;5.566;2023-03-03T01:05:29;2.70;98.10
68764;DHT22;55754;52.038;5.566;2023-03-03T01:07:55;2.60;99.00
68764;DHT22;55754;52.038;5.566;2023-03-03T01:10:21;2.60;98.20
68764;DHT22;55754;52.038;5.566;2023-03-03T01:12:47;2.60;98.70
68764;DHT22;55754;52.038;5.566;2023-03-03T01:15:14;2.60;99.00
68764;DHT22;55754;52.038;5.566;2023-03-03T01:17:41;2.60;98.70
68764;DHT22;55754;52.038;5.566;2023-03-03T01:20:08;2.60;98.40
68764;DHT22;55754;52.038;5.566;2023-03-03T01:22:35;2.60;98.40
68764;DHT22;55754;52.038;5.566;2023-03-03T01:25:01;2.60;98.70
68764;DHT22;55754;52.038;5.566;2023-03-03T01:27:29;2.60;98.60
68764;DHT22;55754;52.038;5.566;2023-03-03T01:29:57;2.60;98.80
68764;DHT22;55754;52.038;5.566;2023-03-03T01:32:24;2.60;98.80
68764;DHT22;55754;52.038;5.566;2023-03-03T01:34:50;2.60;98.60
68764;DHT22;55754;52.038;5.566;2023-03-03T01:37:15;2.50;98.80
68764;DHT22;55754;52.038;5.566;2023-03-03T01:39:41;2.60;98.70
68764;DHT22;55754;52.038;5.566;2023-03-03T01:42:06;2.60;99.20
68764;DHT22;55754;52.038;5.566;2023-03-03T01:44:32;2.50;98.90
68764;DHT22;55754;52.038;5.566;2023-03-03T01:47:08;2.50;98.90
68764;DHT22;55754;52.038;5.566;2023-03-03T01:49:46;2.50;99.20
68764;DHT22;55754;52.038;5.566;2023-03-03T01:52:33;2.60;99.00
68764;DHT22;55754;52.038;5.566;2023-03-03T01:55:04;2.60;98.90
68764;DHT22;55754;52.038;5.566;2023-03-03T01:57:36;2.60;99.10
68764;DHT22;55754;52.038;5.566;2023-03-03T02:00:04;2.60;98.80
68764;DHT22;55754;52.038;5.566;2023-03-03T02:02:31;2.50;99.00
68764;DHT22;55754;52.038;5.566;2023-03-03T02:04:57;2.60;98.70
68764;DHT22;55754;52.038;5.566;2023-03-03T02:07:24;2.50;98.60
68764;DHT22;55754;52.038;5.566;2023-03-03T02:10:09;2.50;98.70
68764;DHT22;55754;52.038;5.566;2023-03-03T02:15:31;2.60;98.50
68764;DHT22;55754;52.038;5.566;2023-03-03T02:18:06;2.60;98.80
68764;DHT22;55754;52.038;5.566;2023-03-03T02:23:12;2.60;98.50
68764;DHT22;55754;52.038;5.566;2023-03-03T02:28:24;2.60;98.20
68764;DHT22;55754;52.038;5.566;2023-03-03T02:30:54;2.60;98.50
68764;DHT22;55754;52.038;5.566;2023-03-03T02:33:19;2.60;98.70
68764;DHT22;55754;52.038;5.566;2023-03-03T02:35:45;2.60;98.60
68764;DHT22;55754;52.038;5.566;2023-03-03T02:43:22;2.60;98.50
68764;DHT22;55754;52.038;5.566;2023-03-03T02:45:50;2.60;98.70
68764;DHT22;55754;52.038;5.566;2023-03-03T02:48:16;2.50;98.50
68764;DHT22;55754;52.038;5.566;2023-03-03T02:50:42;2.50;98.60
68764;DHT22;55754;52.038;5.566;2023-03-03T02:53:07;2.50;98.80
68764;DHT22;55754;52.038;5.566;2023-03-03T02:55:33;2.50;98.50
68764;DHT22;55754;52.038;5.566;2023-03-03T02:57:58;2.50;98.50
68764;DHT22;55754;52.038;5.566;2023-03-03T03:00:24;2.50;98.60
68764;DHT22;55754;52.038;5.566;2023-03-03T03:02:49;2.50;98.70
68764;DHT22;55754;52.038;5.566;2023-03-03T03:05:15;2.50;98.50
68764;DHT22;55754;52.038;5.566;2023-03-03T03:07:40;2.50;98.60
68764;DHT22;55754;52.038;5.566;2023-03-03T03:10:06;2.50;98.60
68764;DHT22;55754;52.038;5.566;2023-03-03T03:12:32;2.60;98.60
68764;DHT22;55754;52.038;5.566;2023-03-03T03:14:57;2.50;98.60
68764;DHT22;55754;52.038;5.566;2023-03-03T03:17:23;2.60;98.60
68764;DHT22;55754;52.038;5.566;2023-03-03T03:19:49;2.60;98.70
68764;DHT22;55754;52.038;5.566;2023-03-03T03:22:14;2.60;98.60
68764;DHT22;55754;52.038;5.566;2023-03-03T03:24:40;2.60;98.80
68764;DHT22;55754;52.038;5.566;2023-03-03T03:27:05;2.60;98.70
68764;DHT22;55754;52.038;5.566;2023-03-03T03:29:31;2.50;98.70
68764;DHT22;55754;52.038;5.566;2023-03-03T03:31:56;2.50;98.90
68764;DHT22;55754;52.038;5.566;2023-03-03T03:34:22;2.50;99.10
68764;DHT22;55754;52.038;5.566;2023-03-03T03:36:47;2.40;99.00
68764;DHT22;55754;52.038;5.566;2023-03-03T03:39:13;2.40;98.70
68764;DHT22;55754;52.038;5.566;2023-03-03T03:41:38;2.50;98.70
68764;DHT22;55754;52.038;5.566;2023-03-03T03:44:04;2.50;98.50
68764;DHT22;55754;52.038;5.566;2023-03-03T03:46:29;2.50;98.40
68764;DHT22;55754;52.038;5.566;2023-03-03T03:48:55;2.50;98.50
68764;DHT22;55754;52.038;5.566;2023-03-03T03:51:20;2.50;98.20
68764;DHT22;55754;52.038;5.566;2023-03-03T03:53:46;2.50;98.40
68764;DHT22;55754;52.038;5.566;2023-03-03T03:56:11;2.50;98.70
68764;DHT22;55754;52.038;5.566;2023-03-03T03:58:39;2.50;98.30
68764;DHT22;55754;52.038;5.566;2023-03-03T04:01:06;2.60;98.30
68764;DHT22;55754;52.038;5.566;2023-03-03T04:03:33;2.60;98.60
68764;DHT22;55754;52.038;5.566;2023-03-03T04:05:58;2.60;98.30
68764;DHT22;55754;52.038;5.566;2023-03-03T04:08:24;2.60;98.30
68764;DHT22;55754;52.038;5.566;2023-03-03T04:10:49;2.60;98.30
68764;DHT22;55754;52.038;5.566;2023-03-03T04:13:15;2.60;98.40
68764;DHT22;55754;52.038;5.566;2023-03-03T04:15:41;2.60;98.20
68764;DHT22;55754;52.038;5.566;2023-03-03T04:18:06;2.60;98.30
68764;DHT22;55754;52.038;5.566;2023-03-03T04:20:32;2.60;98.10
68764;DHT22;55754;52.038;5.566;2023-03-03T04:22:57;2.60;98.40
68764;DHT22;55754;52.038;5.566;2023-03-03T04:25:23;2.60;98.20
68764;DHT22;55754;52.038;5.566;2023-03-03T04:27:49;2.60;98.30
68764;DHT22;55754;52.038;5.566;2023-03-03T04:30:20;2.60;98.30
68764;DHT22;55754;52.038;5.566;2023-03-03T04:32:45;2.60;98.40
68764;DHT22;55754;52.038;5.566;2023-03-03T04:35:12;2.60;98.40
68764;DHT22;55754;52.038;5.566;2023-03-03T04:37:38;2.60;98.20
68764;DHT22;55754;52.038;5.566;2023-03-03T04:40:05;2.60;98.30
68764;DHT22;55754;52.038;5.566;2023-03-03T04:42:34;2.60;98.20
68764;DHT22;55754;52.038;5.566;2023-03-03T04:44:59;2.60;98.10
68764;DHT22;55754;52.038;5.566;2023-03-03T04:47:25;2.60;98.10
68764;DHT22;55754;52.038;5.566;2023-03-03T04:49:50;2.60;98.20
68764;DHT22;55754;52.038;5.566;2023-03-03T04:52:16;2.60;98.40
68764;DHT22;55754;52.038;5.566;2023-03-03T04:54:42;2.60;98.20
68764;DHT22;55754;52.038;5.566;2023-03-03T04:57:07;2.60;98.10
68764;DHT22;55754;52.038;5.566;2023-03-03T04:59:34;2.60;98.40
68764;DHT22;55754;52.038;5.566;2023-03-03T05:01:59;2.50;98.30
68764;DHT22;55754;52.038;5.566;2023-03-03T05:04:25;2.60;98.30
68764;DHT22;55754;52.038;5.566;2023-03-03T05:06:50;2.50;98.30
68764;DHT22;55754;52.038;5.566;2023-03-03T05:09:16;2.50;98.40
68764;DHT22;55754;52.038;5.566;2023-03-03T05:11:41;2.50;98.40
68764;DHT22;55754;52.038;5.566;2023-03-03T05:14:07;2.50;98.40
68764;DHT22;55754;52.038;5.566;2023-03-03T05:16:33;2.50;98.80
68764;DHT22;55754;52.038;5.566;2023-03-03T05:18:58;2.40;98.50
68764;DHT22;55754;52.038;5.566;2023-03-03T05:21:24;2.40;98.30
68764;DHT22;55754;52.038;5.566;2023-03-03T05:23:49;2.30;98.50
68764;DHT22;55754;52.038;5.566;2023-03-03T05:26:15;2.30;98.70
68764;DHT22;55754;52.038;5.566;2023-03-03T05:28:41;2.30;98.60
68764;DHT22;55754;52.038;5.566;2023-03-03T05:31:06;2.30;98.70
68764;DHT22;55754;52.038;5.566;2023-03-03T05:33:32;2.30;98.80
68764;DHT22;55754;52.038;5.566;2023-03-03T05:35:57;2.40;98.70
68764;DHT22;55754;52.038;5.566;2023-03-03T05:38:26;2.40;98.60
68764;DHT22;55754;52.038;5.566;2023-03-03T05:40:52;2.40;98.60
68764;DHT22;55754;52.038;5.566;2023-03-03T05:43:19;2.40;98.60
68764;DHT22;55754;52.038;5.566;2023-03-03T05:45:44;2.40;98.70
68764;DHT22;55754;52.038;5.566;2023-03-03T05:48:10;2.50;98.60
68764;DHT22;55754;52.038;5.566;2023-03-03T05:50:36;2.50;98.50
68764;DHT22;55754;52.038;5.566;2023-03-03T05:53:02;2.40;98.90
68764;DHT22;55754;52.038;5.566;2023-03-03T05:55:28;2.40;99.00
68764;DHT22;55754;52.038;5.566;2023-03-03T05:57:54;2.40;99.10
68764;DHT22;55754;52.038;5.566;2023-03-03T06:00:20;2.40;98.90
68764;DHT22;55754;52.038;5.566;2023-03-03T06:02:46;2.40;98.90
68764;DHT22;55754;52.038;5.566;2023-03-03T06:05:11;2.40;98.80
68764;DHT22;55754;52.038;5.566;2023-03-03T06:07:40;2.40;98.90
68764;DHT22;55754;52.038;5.566;2023-03-03T06:10:06;2.40;98.80
68764;DHT22;55754;52.038;5.566;2023-03-03T06:12:32;2.50;98.80
68764;DHT22;55754;52.038;5.566;2023-03-03T06:14:57;2.50;98.60
68764;DHT22;55754;52.038;5.566;2023-03-03T06:17:23;2.50;99.00
68764;DHT22;55754;52.038;5.566;2023-03-03T06:19:48;2.50;99.10
68764;DHT22;55754;52.038;5.566;2023-03-03T06:22:14;2.60;98.90
68764;DHT22;55754;52.038;5.566;2023-03-03T06:24:39;2.50;99.00
68764;DHT22;55754;52.038;5.566;2023-03-03T06:27:05;2.50;99.20
68764;DHT22;55754;52.038;5.566;2023-03-03T06:29:31;2.50;99.30
68764;DHT22;55754;52.038;5.566;2023-03-03T06:31:56;2.60;99.10
68764;DHT22;55754;52.038;5.566;2023-03-03T06:34:22;2.50;99.30
68764;DHT22;55754;52.038;5.566;2023-03-03T06:36:47;2.50;99.20
68764;DHT22;55754;52.038;5.566;2023-03-03T06:39:13;2.60;99.50
68764;DHT22;55754;52.038;5.566;2023-03-03T06:41:39;2.60;99.40
68764;DHT22;55754;52.038;5.566;2023-03-03T06:44:04;2.60;99.40
68764;DHT22;55754;52.038;5.566;2023-03-03T06:46:30;2.60;99.60
68764;DHT22;55754;52.038;5.566;2023-03-03T06:48:55;2.50;99.90
68764;DHT22;55754;52.038;5.566;2023-03-03T06:51:22;2.50;99.90
68764;DHT22;55754;52.038;5.566;2023-03-03T06:53:54;2.60;99.90
68764;DHT22;55754;52.038;5.566;2023-03-03T06:56:22;2.60;99.90
68764;DHT22;55754;52.038;5.566;2023-03-03T06:58:48;2.60;99.90
68764;DHT22;55754;52.038;5.566;2023-03-03T07:01:16;2.60;99.90
68764;DHT22;55754;52.038;5.566;2023-03-03T07:03:42;2.60;99.90
68764;DHT22;55754;52.038;5.566;2023-03-03T07:06:21;2.70;99.90
68764;DHT22;55754;52.038;5.566;2023-03-03T07:08:48;2.60;99.90
68764;DHT22;55754;52.038;5.566;2023-03-03T07:11:17;2.60;99.90
68764;DHT22;55754;52.038;5.566;2023-03-03T07:13:47;2.70;99.90
68764;DHT22;55754;52.038;5.566;2023-03-03T07:16:13;2.70;99.90
68764;DHT22;55754;52.038;5.566;2023-03-03T07:19:08;2.60;99.90
68764;DHT22;55754;52.038;5.566;2023-03-03T07:21:36;2.70;99.90
68764;DHT22;55754;52.038;5.566;2023-03-03T07:26:42;2.70;99.90
68764;DHT22;55754;52.038;5.566;2023-03-03T07:29:25;2.80;99.90
68764;DHT22;55754;52.038;5.566;2023-03-03T07:31:53;2.80;99.90
68764;DHT22;55754;52.038;5.566;2023-03-03T07:34:20;2.90;99.90
68764;DHT22;55754;52.038;5.566;2023-03-03T07:36:47;2.90;99.90
68764;DHT22;55754;52.038;5.566;2023-03-03T07:39:24;2.90;99.90
68764;DHT22;55754;52.038;5.566;2023-03-03T07:41:50;2.80;99.90
68764;DHT22;55754;52.038;5.566;2023-03-03T07:44:31;2.80;99.90
68764;DHT22;55754;52.038;5.566;2023-03-03T07:47:16;3.60;99.90
68764;DHT22;55754;52.038;5.566;2023-03-03T07:49:42;2.90;99.90
68764;DHT22;55754;52.038;5.566;2023-03-03T07:52:31;2.90;99.90
68764;DHT22;55754;52.038;5.566;2023-03-03T07:55:01;2.90;99.90
68764;DHT22;55754;52.038;5.566;2023-03-03T07:57:43;3.00;99.90
68764;DHT22;55754;52.038;5.566;2023-03-03T08:02:46;3.00;99.90
68764;DHT22;55754;52.038;5.566;2023-03-03T08:13:17;3.00;99.90
68764;DHT22;55754;52.038;5.566;2023-03-03T08:15:45;3.10;99.90
68764;DHT22;55754;52.038;5.566;2023-03-03T08:18:24;3.10;99.90
68764;DHT22;55754;52.038;5.566;2023-03-03T08:20:55;3.20;99.90
68764;DHT22;55754;52.038;5.566;2023-03-03T08:23:21;3.20;99.90
68764;DHT22;55754;52.038;5.566;2023-03-03T08:25:49;3.30;99.90
68764;DHT22;55754;52.038;5.566;2023-03-03T08:28:15;3.30;99.90
68764;DHT22;55754;52.038;5.566;2023-03-03T08:30:42;3.30;99.90
68764;DHT22;55754;52.038;5.566;2023-03-03T08:33:07;3.30;99.90
68764;DHT22;55754;52.038;5.566;2023-03-03T08:35:33;3.30;99.90
68764;DHT22;55754;52.038;5.566;2023-03-03T08:37:59;3.30;99.90
68764;DHT22;55754;52.038;5.566;2023-03-03T08:40:25;3.30;99.90
68764;DHT22;55754;52.038;5.566;2023-03-03T08:42:50;3.30;99.90
68764;DHT22;55754;52.038;5.566;2023-03-03T08:45:16;3.40;99.90
68764;DHT22;55754;52.038;5.566;2023-03-03T08:47:42;3.40;99.90
68764;DHT22;55754;52.038;5.566;2023-03-03T08:50:09;3.40;99.90
68764;DHT22;55754;52.038;5.566;2023-03-03T08:52:35;3.40;99.90
68764;DHT22;55754;52.038;5.566;2023-03-03T08:55:01;3.50;99.90
68764;DHT22;55754;52.038;5.566;2023-03-03T08:57:27;4.30;99.90
68764;DHT22;55754;52.038;5.566;2023-03-03T08:59:52;3.60;99.90
68764;DHT22;55754;52.038;5.566;2023-03-03T09:02:18;3.60;99.90
68764;DHT22;55754;52.038;5.566;2023-03-03T09:04:43;3.70;99.90
68764;DHT22;55754;52.038;5.566;2023-03-03T09:07:10;3.80;99.90
68764;DHT22;55754;52.038;5.566;2023-03-03T09:09:35;3.80;99.90
68764;DHT22;55754;52.038;5.566;2023-03-03T09:12:25;3.90;99.90
68764;DHT22;55754;52.038;5.566;2023-03-03T09:14:52;3.90;99.90
68764;DHT22;55754;52.038;5.566;2023-03-03T09:17:24;4.00;99.90
68764;DHT22;55754;52.038;5.566;2023-03-03T09:19:51;4.00;99.60
68764;DHT22;55754;52.038;5.566;2023-03-03T09:22:27;4.00;99.50
68764;DHT22;55754;52.038;5.566;2023-03-03T09:24:56;4.10;99.50
68764;DHT22;55754;52.038;5.566;2023-03-03T09:27:28;4.10;99.30
68764;DHT22;55754;52.038;5.566;2023-03-03T09:29:56;4.10;99.20
68764;DHT22;55754;52.038;5.566;2023-03-03T09:34:50;4.20;99.00
68764;DHT22;55754;52.038;5.566;2023-03-03T09:37:23;4.20;98.70
68764;DHT22;55754;52.038;5.566;2023-03-03T09:39:55;4.30;98.80
68764;DHT22;55754;52.038;5.566;2023-03-03T09:42:33;4.30;98.80
68764;DHT22;55754;52.038;5.566;2023-03-03T09:45:24;4.40;98.70
68764;DHT22;55754;52.038;5.566;2023-03-03T09:48:07;4.40;98.40
68764;DHT22;55754;52.038;5.566;2023-03-03T09:53:54;4.50;98.20
68764;DHT22;55754;52.038;5.566;2023-03-03T09:56:33;4.50;98.10
68764;DHT22;55754;52.038;5.566;2023-03-03T10:02:00;4.60;97.70
68764;DHT22;55754;52.038;5.566;2023-03-03T10:10:24;4.80;96.20
68764;DHT22;55754;52.038;5.566;2023-03-03T10:16:19;4.90;96.00
68764;DHT22;55754;52.038;5.566;2023-03-03T10:18:52;5.00;95.50
68764;DHT22;55754;52.038;5.566;2023-03-03T10:25:02;5.00;95.20
68764;DHT22;55754;52.038;5.566;2023-03-03T10:49:46;5.90;93.40
68764;DHT22;55754;52.038;5.566;2023-03-03T10:58:11;6.30;92.50
68764;DHT22;55754;52.038;5.566;2023-03-03T11:05:57;6.60;91.30
68764;DHT22;55754;52.038;5.566;2023-03-03T11:11:19;6.60;91.30
68764;DHT22;55754;52.038;5.566;2023-03-03T11:28:15;6.70;90.10
68764;DHT22;55754;52.038;5.566;2023-03-03T11:33:35;7.00;88.50
68764;DHT22;55754;52.038;5.566;2023-03-03T11:38:59;7.10;87.50
68764;DHT22;55754;52.038;5.566;2023-03-03T11:41:40;7.30;86.60
68764;DHT22;55754;52.038;5.566;2023-03-03T11:46:55;7.60;84.10
68764;DHT22;55754;52.038;5.566;2023-03-03T11:55:12;8.10;84.10
68764;DHT22;55754;52.038;5.566;2023-03-03T11:58:19;8.10;82.40
68764;DHT22;55754;52.038;5.566;2023-03-03T12:09:25;8.20;77.50
68764;DHT22;55754;52.038;5.566;2023-03-03T12:20:38;8.60;75.50
68764;DHT22;55754;52.038;5.566;2023-03-03T12:26:01;8.80;75.00
68764;DHT22;55754;52.038;5.566;2023-03-03T12:32:20;9.00;73.80
68764;DHT22;55754;52.038;5.566;2023-03-03T12:34:44;9.00;73.00
68764;DHT22;55754;52.038;5.566;2023-03-03T12:40:23;9.10;72.20
68764;DHT22;55754;52.038;5.566;2023-03-03T12:45:33;9.20;73.60
68764;DHT22;55754;52.038;5.566;2023-03-03T12:48:24;9.10;75.00
68764;DHT22;55754;52.038;5.566;2023-03-03T12:59:13;9.20;73.90
68764;DHT22;55754;52.038;5.566;2023-03-03T13:07:40;9.20;71.50
68764;DHT22;55754;52.038;5.566;2023-03-03T13:10:23;9.20;69.40
68764;DHT22;55754;52.038;5.566;2023-03-03T13:13:27;9.10;70.90
68764;DHT22;55754;52.038;5.566;2023-03-03T13:16:21;9.10;70.90
68764;DHT22;55754;52.038;5.566;2023-03-03T13:19:08;9.30;70.70
68764;DHT22;55754;52.038;5.566;2023-03-03T13:21:48;9.40;70.90
68764;DHT22;55754;52.038;5.566;2023-03-03T13:24:33;9.30;70.40
68764;DHT22;55754;52.038;5.566;2023-03-03T13:27:06;9.30;70.00
68764;DHT22;55754;52.038;5.566;2023-03-03T13:29:34;9.30;69.40
68764;DHT22;55754;52.038;5.566;2023-03-03T13:32:14;9.40;71.70
68764;DHT22;55754;52.038;5.566;2023-03-03T13:35:07;9.50;69.10
68764;DHT22;55754;52.038;5.566;2023-03-03T13:37:47;9.50;69.00
68764;DHT22;55754;52.038;5.566;2023-03-03T13:40:19;9.60;70.80
68764;DHT22;55754;52.038;5.566;2023-03-03T13:42:59;9.50;70.70
68764;DHT22;55754;52.038;5.566;2023-03-03T13:48:44;9.40;71.00
68764;DHT22;55754;52.038;5.566;2023-03-03T13:51:58;9.40;68.90
68764;DHT22;55754;52.038;5.566;2023-03-03T13:54:57;9.40;69.60
68764;DHT22;55754;52.038;5.566;2023-03-03T13:57:56;9.40;68.60
68764;DHT22;55754;52.038;5.566;2023-03-03T14:01:05;9.60;68.90
68764;DHT22;55754;52.038;5.566;2023-03-03T14:06:14;9.60;68.30
68764;DHT22;55754;52.038;5.566;2023-03-03T14:08:50;9.60;69.20
68764;DHT22;55754;52.038;5.566;2023-03-03T14:11:59;9.50;67.10
68764;DHT22;55754;52.038;5.566;2023-03-03T14:14:43;9.60;67.80
68764;DHT22;55754;52.038;5.566;2023-03-03T14:20:15;9.50;65.70
68764;DHT22;55754;52.038;5.566;2023-03-03T14:22:55;9.50;67.00
68764;DHT22;55754;52.038;5.566;2023-03-03T14:25:21;9.40;66.90
68764;DHT22;55754;52.038;5.566;2023-03-03T14:33:21;9.40;68.60
68764;DHT22;55754;52.038;5.566;2023-03-03T14:43:38;9.40;68.90
68764;DHT22;55754;52.038;5.566;2023-03-03T14:46:32;9.40;70.70
68764;DHT22;55754;52.038;5.566;2023-03-03T14:49:04;9.30;67.90
68764;DHT22;55754;52.038;5.566;2023-03-03T14:51:43;9.30;69.80
68764;DHT22;55754;52.038;5.566;2023-03-03T14:54:25;9.30;70.10
68764;DHT22;55754;52.038;5.566;2023-03-03T14:57:06;9.30;70.20
68764;DHT22;55754;52.038;5.566;2023-03-03T14:59:36;9.30;70.50
68764;DHT22;55754;52.038;5.566;2023-03-03T15:02:30;9.30;71.30
68764;DHT22;55754;52.038;5.566;2023-03-03T15:07:49;9.20;71.30
68764;DHT22;55754;52.038;5.566;2023-03-03T15:10:36;9.30;71.90
68764;DHT22;55754;52.038;5.566;2023-03-03T15:18:27;9.30;70.50
68764;DHT22;55754;52.038;5.566;2023-03-03T15:21:12;9.20;70.90
68764;DHT22;55754;52.038;5.566;2023-03-03T15:24:01;9.20;68.90
68764;DHT22;55754;52.038;5.566;2023-03-03T15:26:46;9.10;67.00
68764;DHT22;55754;52.038;5.566;2023-03-03T15:29:38;9.00;67.70
68764;DHT22;55754;52.038;5.566;2023-03-03T15:33:15;8.90;67.70
68764;DHT22;55754;52.038;5.566;2023-03-03T15:35:40;8.80;68.50
68764;DHT22;55754;52.038;5.566;2023-03-03T15:41:18;8.80;69.30
68764;DHT22;55754;52.038;5.566;2023-03-03T15:44:20;8.80;69.30
68764;DHT22;55754;52.038;5.566;2023-03-03T15:52:44;8.80;67.90
68764;DHT22;55754;52.038;5.566;2023-03-03T15:55:32;8.80;69.10
68764;DHT22;55754;52.038;5.566;2023-03-03T16:04:21;8.70;68.60
68764;DHT22;55754;52.038;5.566;2023-03-03T16:12:20;9.00;70.30
68764;DHT22;55754;52.038;5.566;2023-03-03T16:18:29;8.60;70.20
68764;DHT22;55754;52.038;5.566;2023-03-03T16:21:09;9.80;69.80
68764;DHT22;55754;52.038;5.566;2023-03-03T16:24:22;8.30;69.20
68764;DHT22;55754;52.038;5.566;2023-03-03T16:26:57;8.30;70.10
68764;DHT22;55754;52.038;5.566;2023-03-03T16:29:45;8.20;70.70
68764;DHT22;55754;52.038;5.566;2023-03-03T16:35:25;8.20;68.60
68764;DHT22;55754;52.038;5.566;2023-03-03T16:38:44;8.30;70.20
68764;DHT22;55754;52.038;5.566;2023-03-03T16:40:57;8.10;70.40
68764;DHT22;55754;52.038;5.566;2023-03-03T16:44:33;8.10;70.30
68764;DHT22;55754;52.038;5.566;2023-03-03T16:46:45;8.10;69.40
68764;DHT22;55754;52.038;5.566;2023-03-03T16:49:31;7.70;70.70
68764;DHT22;55754;52.038;5.566;2023-03-03T16:52:12;8.00;70.10
68764;DHT22;55754;52.038;5.566;2023-03-03T16:54:45;7.90;70.10
68764;DHT22;55754;52.038;5.566;2023-03-03T17:03:11;7.80;69.70
68764;DHT22;55754;52.038;5.566;2023-03-03T17:05:58;7.80;71.30
68764;DHT22;55754;52.038;5.566;2023-03-03T17:08:53;7.80;71.10
68764;DHT22;55754;52.038;5.566;2023-03-03T17:11:32;7.80;70.30
68764;DHT22;55754;52.038;5.566;2023-03-03T17:19:49;7.70;71.30
68764;DHT22;55754;52.038;5.566;2023-03-03T17:25:22;7.80;71.40
68764;DHT22;55754;52.038;5.566;2023-03-03T17:41:14;7.80;73.50
68764;DHT22;55754;52.038;5.566;2023-03-03T17:46:34;7.70;72.30
68764;DHT22;55754;52.038;5.566;2023-03-03T17:49:48;7.70;72.60
68764;DHT22;55754;52.038;5.566;2023-03-03T17:55:24;7.70;72.20
68764;DHT22;55754;52.038;5.566;2023-03-03T17:58:26;7.70;73.20
68764;DHT22;55754;52.038;5.566;2023-03-03T18:06:58;7.80;72.10
68764;DHT22;55754;52.038;5.566;2023-03-03T18:12:55;7.80;72.60
68764;DHT22;55754;52.038;5.566;2023-03-03T18:15:39;7.70;72.80
68764;DHT22;55754;52.038;5.566;2023-03-03T18:23:45;7.90;73.70
68764;DHT22;55754;52.038;5.566;2023-03-03T18:26:34;7.80;73.70
68764;DHT22;55754;52.038;5.566;2023-03-03T18:32:29;7.80;73.30
68764;DHT22;55754;52.038;5.566;2023-03-03T18:42:39;7.70;73.20
68764;DHT22;55754;52.038;5.566;2023-03-03T18:48:10;7.70;73.30
68764;DHT22;55754;52.038;5.566;2023-03-03T18:50:42;7.60;73.40
68764;DHT22;55754;52.038;5.566;2023-03-03T18:53:27;7.60;73.80
68764;DHT22;55754;52.038;5.566;2023-03-03T18:55:58;7.60;73.90
68764;DHT22;55754;52.038;5.566;2023-03-03T18:58:33;7.60;74.10
68764;DHT22;55754;52.038;5.566;2023-03-03T19:01:44;7.60;74.30
68764;DHT22;55754;52.038;5.566;2023-03-03T19:09:00;7.60;75.20
68764;DHT22;55754;52.038;5.566;2023-03-03T19:11:39;7.60;75.70
68764;DHT22;55754;52.038;5.566;2023-03-03T19:16:55;7.60;75.30
68764;DHT22;55754;52.038;5.566;2023-03-03T19:19:29;7.50;75.60
68764;DHT22;55754;52.038;5.566;2023-03-03T19:30:57;7.50;76.30
68764;DHT22;55754;52.038;5.566;2023-03-03T19:39:41;7.50;77.20
68764;DHT22;55754;52.038;5.566;2023-03-03T19:42:18;7.50;77.20
68764;DHT22;55754;52.038;5.566;2023-03-03T19:45:24;7.50;77.20
68764;DHT22;55754;52.038;5.566;2023-03-03T19:48:14;7.50;76.80
68764;DHT22;55754;52.038;5.566;2023-03-03T19:51:16;7.40;77.00
68764;DHT22;55754;52.038;5.566;2023-03-03T19:56:41;7.50;76.90
68764;DHT22;55754;52.038;5.566;2023-03-03T19:59:19;7.50;77.20
68764;DHT22;55754;52.038;5.566;2023-03-03T20:01:53;7.50;76.90
68764;DHT22;55754;52.038;5.566;2023-03-03T20:15:11;7.40;77.50
68764;DHT22;55754;52.038;5.566;2023-03-03T20:20:35;7.50;77.90
68764;DHT22;55754;52.038;5.566;2023-03-03T20:25:58;7.40;78.30
68764;DHT22;55754;52.038;5.566;2023-03-03T20:32:02;7.40;77.70
68764;DHT22;55754;52.038;5.566;2023-03-03T20:37:23;7.40;78.20
68764;DHT22;55754;52.038;5.566;2023-03-03T20:40:09;7.40;78.50
68764;DHT22;55754;52.038;5.566;2023-03-03T20:48:05;7.40;78.10
68764;DHT22;55754;52.038;5.566;2023-03-03T20:53:25;7.40;78.20
68764;DHT22;55754;52.038;5.566;2023-03-03T20:56:06;7.40;78.50
68764;DHT22;55754;52.038;5.566;2023-03-03T21:04:29;7.40;78.10
68764;DHT22;55754;52.038;5.566;2023-03-03T21:06:59;7.40;78.60
68764;DHT22;55754;52.038;5.566;2023-03-03T21:09:31;7.40;78.60
68764;DHT22;55754;52.038;5.566;2023-03-03T21:12:00;7.40;78.60
68764;DHT22;55754;52.038;5.566;2023-03-03T21:14:32;7.40;79.10
68764;DHT22;55754;52.038;5.566;2023-03-03T21:16:59;7.50;79.00
68764;DHT22;55754;52.038;5.566;2023-03-03T21:21:53;7.40;79.30
68764;DHT22;55754;52.038;5.566;2023-03-03T21:24:19;7.40;79.60
68764;DHT22;55754;52.038;5.566;2023-03-03T21:26:58;7.40;79.60
68764;DHT22;55754;52.038;5.566;2023-03-03T21:29:32;7.40;79.30
68764;DHT22;55754;52.038;5.566;2023-03-03T21:36:51;7.40;79.30
68764;DHT22;55754;52.038;5.566;2023-03-03T21:39:38;7.40;79.40
68764;DHT22;55754;52.038;5.566;2023-03-03T21:42:10;8.40;80.10
68764;DHT22;55754;52.038;5.566;2023-03-03T21:44:47;7.30;79.70
68764;DHT22;55754;52.038;5.566;2023-03-03T21:47:23;7.40;79.60
68764;DHT22;55754;52.038;5.566;2023-03-03T21:49:52;7.40;79.80
68764;DHT22;55754;52.038;5.566;2023-03-03T21:52:19;7.40;80.30
68764;DHT22;55754;52.038;5.566;2023-03-03T21:54:46;7.40;80.30
68764;DHT22;55754;52.038;5.566;2023-03-03T21:57:12;7.40;80.20
68764;DHT22;55754;52.038;5.566;2023-03-03T21:59:38;7.40;80.40
68764;DHT22;55754;52.038;5.566;2023-03-03T22:02:04;7.40;80.30
68764;DHT22;55754;52.038;5.566;2023-03-03T22:04:30;7.40;80.60
68764;DHT22;55754;52.038;5.566;2023-03-03T22:06:55;7.40;80.60
68764;DHT22;55754;52.038;5.566;2023-03-03T22:09:21;8.10;81.10